Skip Navigation Links
NOAA logo - Click to go to the NOAA homepage
NOAA's National Weather Service
Alaska Aviation Weather Unit
  NWS logo - Click to go to the NWS homepage
Left Navbar Graphic     08 AKDT = 16 GMT

   
NOAA is celebrating 200 years of science, service, and stewardship. Visit the NOAA 200th celebration Web site to learn more.
USA.gov is the U.S. Government's official Web portal to all Federal, state and local government Web resources and services.
Facebook
NWS on Facebook

Important Change Regarding the AAWU Web Presence

 

Over the last several months, the AAWU has been working to navigate its webpages to a nationally supported server. Security, as well as other needs, have necessitated the change.  In the process, we have made an effort to enhance the functionality of our website, as well as some of our products. As of June 20, 2017, aawu.arh.noaa.gov will be discontinued. The new AAWU web address is weather.gov/aawu. It is now live and will run in-parallel with the old site until it is discontinued. Please send any feedback or questions regarding the new webpages to nws.ar.aawu.webauthors@noaa.gov.  Thank you for your patience during this time of transition.
AAWU Home :: Display TAF Add Bookmark
TAF PACV 291556Z 2916/3012 11005KT 5SM -RA BR SCT015 OVC025
      TEMPO 2916/2918 6SM -RA OVC035
     FM292200 13006KT P6SM -SHRA SCT025 OVC040
     FM300600 VRB03KT P6SM SCT040 BKN070=

METAR PACV 291053Z 00000KT 10SM FEW013 BKN055 OVC070 07/07 A2992 RMK AO2 SLP132 T00720072 $= METAR PACV 291153Z 00000KT 10SM SCT017 BKN055 OVC065 07/07 A2992 RMK AO2 RAB29E38 SLP131 P0000 60000 70034 T00670067 10117 20067 50003 $= METAR PACV 291253Z 09004KT 6SM -RA BR FEW018 BKN035 OVC042 07/07 A2993 RMK AO2 RAB10 SLP135 P0001 T00670067 $= SPECI PACV 291341Z 05007KT 4SM -RA BR SCT020 BKN027 OVC036 07/05 A2993 RMK AO2 P0002 T00670050 $= METAR PACV 291353Z 07005KT 4SM -RA BR BKN021 OVC028 06/05 A2994 RMK AO2 SLP137 P0003 T00610050 $= SPECI PACV 291440Z 00000KT 4SM -RA BR FEW012 SCT023 OVC032 06/06 A2995 RMK AO2 P0005 T00560056 $= SPECI PACV 291442Z 09003KT 1/2SM R27/P6000FT -RA FG FEW014 SCT020 OVC032 06/06 A2995 RMK AO2 P0006 T00560056 $= METAR PACV 291453Z 06005KT 1/4SM R27/P6000FT -RA FG SCT027 OVC032 06/05 A2995 RMK AO2 SLP141 P0007 60011 T00560050 51010 $= PACV 291458Z 08004KT 1 3/4SM -RA BR BKN025 OVC032 06/05 A2995 RMK AO2 P0001 T00560050 $= PACV 291500Z 08004KT 4SM -RA BR SCT025 OVC032 06/05 A2995 RMK AO2 P0001 T00560050 $= METAR PACV 291553Z 09005KT 10SM -RA SCT024 OVC030 06/05 A2996 RMK AO2 SLP145 P0003 T00560050 $= SPECI PACV 291609Z 10008KT 10SM -RA BKN029 OVC037 06/04 A2996 RMK AO2 P0001 T00610044 $=
 Alaska TAF Map

NOAA's National Weather Service
Alaska Aviation Weather Unit
6930 Sand Lake Road
Anchorage, AK 99502-1845
Disclaimer
Credits
Glossary
Privacy Policy
About Us
Career Opportunities
Contact AAWU Internet Services Site last modified: April, 17th 2012